Time;durP1;ratioP1;P1;durP2;ratioP2;P2;SDS_P1;SDS_P2;PMS_P1;PMS_P2;Temp;Humidity;BMP_temperature;BMP_pressure;BME280_temperature;BME280_humidity;BME280_pressure;Samples;Min_cycle;Max_cycle;Signal;HPM_P1;HPM_P2
2022/03/17 00:01:49;;;;;;;16.20;13.80;;;;;;;6.83;84.00;101338.94;5052383;28;20321;-70
2022/03/17 00:04:15;;;;;;;14.30;12.73;;;;;;;6.79;84.09;101352.22;5052658;28;20178;-70
2022/03/17 00:06:41;;;;;;;15.13;13.60;;;;;;;6.79;84.27;101352.22;5053161;28;20177;-70
2022/03/17 00:09:07;;;;;;;15.07;13.30;;;;;;;6.77;84.60;101345.41;5055509;28;20590;-72
2022/03/17 00:11:33;;;;;;;15.50;12.77;;;;;;;6.67;84.83;101346.19;5055208;28;20648;-72
2022/03/17 00:13:58;;;;;;;13.53;12.33;;;;;;;6.71;84.88;101351.91;5052807;28;20194;-72
2022/03/17 00:16:24;;;;;;;14.40;12.90;;;;;;;6.62;84.76;101346.16;5052697;28;20635;-72
2022/03/17 00:18:50;;;;;;;13.90;12.60;;;;;;;6.59;85.38;101338.53;5052572;28;20233;-72
2022/03/17 00:21:15;;;;;;;15.83;14.23;;;;;;;6.57;85.53;101346.94;5052558;28;20182;-72
2022/03/17 00:23:40;;;;;;;16.60;14.57;;;;;;;6.54;85.56;101354.81;5052520;28;20175;-71
2022/03/17 00:26:06;;;;;;;15.83;14.23;;;;;;;6.52;85.66;101340.69;5052083;28;20179;-72
2022/03/17 00:28:31;;;;;;;17.10;13.77;;;;;;;6.60;85.40;101340.16;5051885;28;20543;-72
2022/03/17 00:30:57;;;;;;;15.17;13.77;;;;;;;6.59;85.33;101343.16;5052280;28;20757;-72
2022/03/17 00:33:22;;;;;;;16.10;13.77;;;;;;;6.67;85.43;101348.09;5052211;28;20569;-72
2022/03/17 00:35:47;;;;;;;15.87;14.20;;;;;;;6.61;84.99;101341.00;5052145;28;20175;-73
2022/03/17 00:38:15;;;;;;;18.47;14.10;;;;;;;6.61;85.27;101341.00;5051941;28;20175;-73
2022/03/17 00:40:42;;;;;;;14.80;13.30;;;;;;;6.59;85.69;101340.44;5052106;28;20179;-72
2022/03/17 00:43:09;;;;;;;16.23;13.50;;;;;;;6.59;85.64;101335.00;5034153;28;20696;-72
2022/03/17 00:45:35;;;;;;;15.23;13.60;;;;;;;6.58;85.83;101331.47;5051720;28;20219;-72
2022/03/17 00:48:01;;;;;;;15.33;12.17;;;;;;;6.59;85.70;101330.41;5051677;28;20528;-72
2022/03/17 00:50:27;;;;;;;17.17;14.30;;;;;;;6.55;85.77;101326.59;5051902;28;20278;-72
2022/03/17 00:52:53;;;;;;;14.13;12.20;;;;;;;6.58;85.80;101331.47;5051885;28;20270;-73
2022/03/17 00:55:20;;;;;;;13.83;12.43;;;;;;;6.53;85.97;101321.41;5051032;28;20179;-73
2022/03/17 00:57:46;;;;;;;14.57;13.10;;;;;;;6.55;86.25;101324.69;5051584;28;20203;-72
2022/03/17 01:00:15;;;;;;;14.77;13.37;;;;;;;6.38;86.67;101318.63;5051744;28;20189;-73
2022/03/17 01:02:45;;;;;;;16.20;13.83;;;;;;;6.22;87.54;101319.56;5051625;28;20178;-72
2022/03/17 01:05:10;;;;;;;15.93;13.63;;;;;;;6.14;88.32;101315.44;5051229;28;20183;-72
2022/03/17 01:07:37;;;;;;;16.37;13.17;;;;;;;6.04;89.14;101309.94;5051420;28;20172;-72
2022/03/17 01:10:10;;;;;;;16.67;13.27;;;;;;;6.01;89.58;101315.91;5051511;28;20195;-72
2022/03/17 01:12:35;;;;;;;15.60;14.10;;;;;;;5.87;90.94;101310.06;5051530;28;20164;-73
2022/03/17 01:15:02;;;;;;;15.60;13.30;;;;;;;5.92;90.88;101307.41;5051578;28;20203;-72
2022/03/17 01:17:28;;;;;;;18.33;13.33;;;;;;;5.73;92.11;101306.13;5051809;28;20217;-72
2022/03/17 01:19:53;;;;;;;14.73;13.10;;;;;;;5.69;92.68;101318.59;5051441;28;20199;-72
2022/03/17 01:22:21;;;;;;;15.57;13.90;;;;;;;5.52;93.47;101304.31;5051430;28;20175;-73
2022/03/17 01:24:51;;;;;;;18.87;14.03;;;;;;;5.51;94.24;101313.53;5051269;28;20187;-72
2022/03/17 01:27:20;;;;;;;16.00;14.40;;;;;;;5.42;95.06;101309.63;5051095;28;20179;-72
2022/03/17 01:29:46;;;;;;;15.57;13.87;;;;;;;5.40;95.79;101309.91;5051483;28;20215;-73
2022/03/17 01:32:12;;;;;;;15.97;13.90;;;;;;;5.51;96.05;101313.53;5051355;28;20270;-72
2022/03/17 01:34:37;;;;;;;16.30;13.77;;;;;;;5.76;95.28;101312.94;5051414;28;20250;-72
2022/03/17 01:37:03;;;;;;;15.33;13.53;;;;;;;5.88;94.17;101306.25;5050652;28;20182;-73
2022/03/17 01:39:28;;;;;;;18.73;13.30;;;;;;;5.83;93.14;101305.41;5050756;28;20236;-72
2022/03/17 01:41:57;;;;;;;14.73;13.30;;;;;;;5.73;93.25;101308.84;5050572;28;20217;-72
2022/03/17 01:44:23;;;;;;;14.20;12.73;;;;;;;5.53;94.51;101304.06;5050460;28;20178;-73
2022/03/17 01:49:36;;;;;;;20.03;14.47;;;;;;;5.18;96.57;101292.84;5050597;28;20213;-72
2022/03/17 01:52:01;;;;;;;16.27;14.13;;;;;;;5.17;97.32;101297.44;5050537;28;20168;-73
2022/03/17 01:54:27;;;;;;;16.23;14.37;;;;;;;5.20;97.96;101296.13;5050556;28;20175;-73
2022/03/17 01:56:52;;;;;;;15.57;13.97;;;;;;;5.23;97.95;101290.22;5050404;28;20270;-72
2022/03/17 01:59:18;;;;;;;16.77;14.97;;;;;;;5.23;97.82;101285.63;5050520;28;20286;-73
2022/03/17 02:01:45;;;;;;;16.60;13.57;;;;;;;5.28;97.57;101282.94;5050565;28;20167;-73
2022/03/17 02:04:10;;;;;;;18.50;14.47;;;;;;;5.23;97.90;101274.78;5050539;28;20168;-72
2022/03/17 02:06:37;;;;;;;19.33;15.97;;;;;;;5.27;98.19;101281.31;5052157;28;20254;-73
2022/03/17 02:09:03;;;;;;;18.07;15.50;;;;;;;5.26;97.99;101263.44;5054313;28;20168;-73
2022/03/17 02:14:20;;;;;;;16.80;14.97;;;;;;;5.34;97.70;101260.25;5054472;28;20296;-73
2022/03/17 02:16:45;;;;;;;21.30;15.70;;;;;;;5.33;97.85;101261.31;5054299;28;20450;-73
2022/03/17 02:19:12;;;;;;;18.77;13.40;;;;;;;5.34;97.83;101260.25;5054227;28;20187;-73
2022/03/17 02:21:39;;;;;;;16.60;14.83;;;;;;;5.47;97.97;101258.19;5054152;28;20182;-73
2022/03/17 02:26:50;;;;;;;16.37;14.47;;;;;;;5.46;97.42;101259.25;5053905;28;20206;-70
2022/03/17 02:29:15;;;;;;;18.10;15.20;;;;;;;5.53;97.45;101265.31;5053795;28;20290;-70
2022/03/17 02:31:40;;;;;;;16.90;15.17;;;;;;;5.50;97.31;101263.13;5053775;28;20334;-70
2022/03/17 02:34:06;;;;;;;18.53;15.30;;;;;;;5.50;97.08;101255.00;5054002;28;20639;-70
2022/03/17 02:36:31;;;;;;;21.27;15.17;;;;;;;5.54;97.06;101242.53;5054209;28;20171;-73
2022/03/17 02:38:57;;;;;;;20.17;15.00;;;;;;;5.61;96.75;101245.84;5053818;28;20584;-73
2022/03/17 02:41:23;;;;;;;21.23;16.03;;;;;;;5.54;96.36;101243.38;5053727;28;20171;-72
2022/03/17 02:43:52;;;;;;;16.80;14.63;;;;;;;5.59;96.15;101242.56;5053726;28;20627;-73
2022/03/17 02:46:18;;;;;;;19.63;16.33;;;;;;;5.63;96.35;101240.97;5035679;28;20583;-73
2022/03/17 02:48:44;;;;;;;17.70;15.17;;;;;;;5.61;96.61;101237.72;5035867;28;20575;-73
2022/03/17 02:51:10;;;;;;;18.07;16.17;;;;;;;5.70;96.44;101238.06;5053587;28;20203;-71
2022/03/17 02:53:35;;;;;;;17.13;14.47;;;;;;;5.73;96.30;101235.66;5053702;28;20175;-74
2022/03/17 02:56:00;;;;;;;17.37;15.43;;;;;;;5.76;95.54;101235.13;5053847;28;20532;-73
2022/03/17 02:58:26;;;;;;;18.17;15.23;;;;;;;5.78;95.79;101232.97;5053261;28;20176;-73
2022/03/17 03:00:51;;;;;;;16.00;14.50;;;;;;;5.85;95.94;101247.13;5053629;28;20678;-74
2022/03/17 03:03:17;;;;;;;16.27;14.63;;;;;;;5.83;95.34;101235.72;5053419;28;20182;-73
2022/03/17 03:05:43;;;;;;;21.87;16.57;;;;;;;5.75;95.38;101238.91;5053136;28;20171;-73
2022/03/17 03:08:08;;;;;;;20.23;16.07;;;;;;;5.64;95.50;101229.91;5053108;28;20262;-73
2022/03/17 03:10:34;;;;;;;17.27;15.57;;;;;;;5.56;95.94;101224.13;5053397;28;20286;-73
2022/03/17 03:12:59;;;;;;;18.30;16.43;;;;;;;5.70;96.05;101228.03;5035364;28;20657;-73
2022/03/17 03:15:25;;;;;;;18.27;16.27;;;;;;;5.61;96.28;101232.28;5053184;28;20182;-73
2022/03/17 03:17:51;;;;;;;18.00;16.10;;;;;;;5.74;96.20;101226.44;5052115;28;20179;-73
2022/03/17 03:20:16;;;;;;;18.13;16.00;;;;;;;5.84;95.81;101221.09;5053092;28;20175;-73
2022/03/17 03:22:41;;;;;;;18.53;16.50;;;;;;;5.98;95.19;101226.91;5053075;28;20181;-74
2022/03/17 03:25:09;;;;;;;18.17;15.80;;;;;;;5.91;94.76;101223.59;5052957;28;20171;-73
2022/03/17 03:27:35;;;;;;;18.03;15.70;;;;;;;5.98;94.22;101221.50;5052592;28;20179;-74
2022/03/17 03:30:01;;;;;;;17.00;15.30;;;;;;;5.90;93.73;101214.66;5052566;28;20203;-73
2022/03/17 03:32:29;;;;;;;17.70;15.70;;;;;;;5.93;93.90;101230.41;5052947;28;20626;-73
2022/03/17 03:34:54;;;;;;;18.00;15.80;;;;;;;6.03;93.60;101221.50;5053137;28;20179;-75
2022/03/17 03:37:23;;;;;;;18.70;16.37;;;;;;;5.85;93.52;101220.00;5052682;28;20183;-73
2022/03/17 03:39:50;;;;;;;19.70;16.60;;;;;;;5.81;93.78;101221.63;5052780;28;20183;-71
2022/03/17 03:42:15;;;;;;;21.20;16.00;;;;;;;5.86;93.83;101221.66;5052604;28;20167;-70
2022/03/17 03:44:41;;;;;;;20.70;16.20;;;;;;;5.73;94.53;101232.13;5052635;28;20179;-70
2022/03/17 03:47:07;;;;;;;18.07;16.13;;;;;;;5.72;95.12;101215.03;5034318;28;20171;-70
2022/03/17 03:49:33;;;;;;;18.57;15.90;;;;;;;5.67;94.78;101207.69;5034706;28;20661;-71
2022/03/17 03:51:58;;;;;;;18.80;15.43;;;;;;;5.69;95.14;101202.00;5052493;28;20175;-73
2022/03/17 03:54:24;;;;;;;21.67;17.17;;;;;;;5.75;94.73;101206.38;5052510;28;20178;-73
2022/03/17 03:56:50;;;;;;;20.83;17.13;;;;;;;5.84;94.83;101212.97;5052479;28;20267;-72
2022/03/17 03:59:21;;;;;;;23.17;17.17;;;;;;;5.77;94.32;101201.50;5052371;28;20179;-73
2022/03/17 04:01:51;;;;;;;26.20;17.23;;;;;;;5.62;95.10;101198.69;5051921;28;20644;-72
2022/03/17 04:04:18;;;;;;;19.53;17.43;;;;;;;5.68;95.42;101200.38;5051925;28;20191;-73
2022/03/17 04:06:45;;;;;;;20.67;17.80;;;;;;;5.64;95.30;101205.50;5051822;28;20175;-73
2022/03/17 04:09:12;;;;;;;20.33;17.20;;;;;;;5.58;95.61;101201.09;5051470;28;20172;-73
2022/03/17 04:11:38;;;;;;;24.07;17.20;;;;;;;5.60;95.69;101204.38;5051617;28;20182;-72
2022/03/17 04:14:03;;;;;;;20.80;17.60;;;;;;;5.56;95.95;101188.91;5051684;28;20175;-73
2022/03/17 04:16:29;;;;;;;22.13;17.30;;;;;;;5.47;96.37;101183.13;5051700;28;20652;-73
2022/03/17 04:18:54;;;;;;;22.83;17.67;;;;;;;5.57;97.02;101185.91;5051438;28;20182;-73
2022/03/17 04:21:19;;;;;;;19.73;16.53;;;;;;;5.43;97.32;101173.06;5051550;28;20179;-73
2022/03/17 04:23:45;;;;;;;24.93;17.17;;;;;;;5.62;97.12;101187.84;5051341;28;20178;-73
2022/03/17 04:26:11;;;;;;;22.93;18.13;;;;;;;5.73;96.66;101186.84;5051494;28;20173;-73
2022/03/17 04:28:36;;;;;;;28.23;19.30;;;;;;;5.88;95.96;101194.25;5051509;28;20289;-72
2022/03/17 04:31:03;;;;;;;19.10;17.00;;;;;;;5.71;95.74;101183.59;5051798;28;20228;-71
2022/03/17 04:33:29;;;;;;;22.83;18.10;;;;;;;5.71;96.04;101189.00;5052091;28;20168;-70
2022/03/17 04:35:55;;;;;;;22.60;17.77;;;;;;;5.66;96.56;101197.94;5051894;28;20167;-70
2022/03/17 04:38:20;;;;;;;23.40;17.40;;;;;;;5.62;96.91;101188.66;5051430;28;20198;-70
2022/03/17 04:40:49;;;;;;;26.37;18.37;;;;;;;5.55;97.23;101195.41;5051632;28;20216;-71
2022/03/17 04:43:17;;;;;;;26.20;18.37;;;;;;;5.52;97.55;101195.91;5051560;28;20167;-71
2022/03/17 04:45:43;;;;;;;23.67;17.70;;;;;;;5.63;97.61;101190.28;5033721;28;20577;-72
2022/03/17 04:48:09;;;;;;;24.87;18.97;;;;;;;5.60;97.18;101182.69;5051144;28;20163;-75
2022/03/17 04:50:35;;;;;;;22.97;18.43;;;;;;;5.68;97.45;101186.81;5051242;28;20578;-71
2022/03/17 04:55:44;;;;;;;24.80;19.47;;;;;;;5.88;95.83;101186.13;5051381;28;20175;-71
2022/03/17 04:58:09;;;;;;;24.00;18.27;;;;;;;5.89;95.24;101191.28;5051185;28;20179;-72
2022/03/17 05:00:34;;;;;;;24.73;18.97;;;;;;;6.00;94.95;101188.69;5051145;28;20584;-71
2022/03/17 05:03:00;;;;;;;24.60;17.10;;;;;;;5.91;95.07;101181.03;5051131;28;20266;-73
2022/03/17 05:05:25;;;;;;;20.70;16.83;;;;;;;6.12;94.83;101200.16;5051195;28;20646;-70
2022/03/17 05:07:56;;;;;;;25.70;19.60;;;;;;;6.24;93.64;101204.28;5050842;28;20171;-72
2022/03/17 05:10:21;;;;;;;21.27;17.67;;;;;;;6.25;92.26;101207.81;5050856;28;20670;-71
2022/03/17 05:12:47;;;;;;;24.60;17.90;;;;;;;6.44;91.79;101213.59;5051302;28;20186;-72
2022/03/17 05:15:12;;;;;;;25.63;18.83;;;;;;;6.47;90.81;101223.91;5050905;28;20171;-73
2022/03/17 05:17:39;;;;;;;14.13;12.67;;;;;;;6.66;89.37;101224.28;5047152;28;20183;-72
2022/03/17 05:20:05;;;;;;;23.97;17.77;;;;;;;6.94;86.39;101231.94;5036521;28;20194;-71
2022/03/17 05:22:30;;;;;;;24.00;19.27;;;;;;;7.18;84.07;101239.63;5048098;28;20569;-71
2022/03/17 05:24:56;;;;;;;25.40;18.77;;;;;;;7.37;82.99;101254.31;5051163;28;20179;-71
2022/03/17 05:27:21;;;;;;;22.63;19.13;;;;;;;7.56;81.10;101251.91;5050898;28;20650;-71
2022/03/17 05:29:47;;;;;;;23.60;18.70;;;;;;;7.64;80.65;101251.34;5050754;28;20286;-71
2022/03/17 05:32:12;;;;;;;18.40;16.43;;;;;;;7.78;79.50;101268.75;5050993;28;20237;-78
2022/03/17 05:34:38;;;;;;;23.70;18.50;;;;;;;7.86;79.01;101272.84;5050917;28;20174;-73
2022/03/17 05:37:03;;;;;;;18.67;15.53;;;;;;;7.96;78.52;101276.41;5050655;28;20182;-75
2022/03/17 05:39:28;;;;;;;20.80;18.07;;;;;;;7.96;77.90;101273.66;5050767;28;20368;-73
2022/03/17 05:41:54;;;;;;;18.50;16.00;;;;;;;8.05;77.90;101290.25;5050208;28;20182;-72
2022/03/17 05:44:19;;;;;;;20.57;17.43;;;;;;;8.13;76.60;101289.72;5050820;28;20540;-71
2022/03/17 05:46:44;;;;;;;25.00;18.50;;;;;;;8.20;76.10;101289.41;5050781;28;20538;-74
2022/03/17 05:49:10;;;;;;;25.87;18.93;;;;;;;8.30;75.90;101290.22;5050872;28;20232;-73
2022/03/17 05:51:35;;;;;;;23.23;18.73;;;;;;;8.26;75.93;101299.22;5051070;28;20195;-76
2022/03/17 05:54:01;;;;;;;22.63;17.77;;;;;;;8.23;75.25;101306.00;5050716;28;20175;-77
2022/03/17 05:56:26;;;;;;;17.00;11.13;;;;;;;8.39;74.92;101316.91;5050794;28;20228;-71
2022/03/17 05:58:51;;;;;;;19.93;16.50;;;;;;;8.42;74.72;101330.81;5050608;28;20224;-73
2022/03/17 06:01:17;;;;;;;20.30;16.73;;;;;;;8.41;74.34;101331.09;5051096;28;20515;-74
2022/03/17 06:03:42;;;;;;;20.40;16.73;;;;;;;8.49;73.58;101336.75;5050971;28;20526;-72
2022/03/17 06:06:07;;;;;;;19.40;13.97;;;;;;;8.54;73.87;101328.59;5051681;28;20212;-77
2022/03/17 06:08:33;;;;;;;23.20;19.03;;;;;;;8.44;73.56;101331.34;5051094;28;20178;-77
2022/03/17 06:10:58;;;;;;;20.70;18.67;;;;;;;8.41;73.89;101333.81;5050743;28;20207;-78
2022/03/17 06:13:23;;;;;;;24.07;19.73;;;;;;;8.50;73.70;101343.03;5050946;28;20611;-70
2022/03/17 06:15:49;;;;;;;27.40;19.23;;;;;;;8.43;73.61;101346.06;5050587;28;20623;-69
2022/03/17 06:18:14;;;;;;;20.07;18.07;;;;;;;8.48;74.51;101353.38;5050455;28;20175;-72
2022/03/17 06:20:39;;;;;;;21.17;18.83;;;;;;;8.47;74.41;101355.28;5050551;28;20294;-70
2022/03/17 06:23:06;;;;;;;24.23;16.83;;;;;;;8.41;74.59;101345.50;5050667;28;20645;-70
2022/03/17 06:25:34;;;;;;;22.43;20.23;;;;;;;8.40;74.28;101362.94;5049958;28;20175;-71
2022/03/17 06:27:59;;;;;;;19.63;17.57;;;;;;;8.38;74.42;101358.84;5049306;28;20187;-71
2022/03/17 06:30:35;;;;;;;19.77;17.57;;;;;;;8.47;73.87;101365.38;5049390;28;20309;-72
2022/03/17 06:33:01;;;;;;;25.03;19.27;;;;;;;8.38;73.58;101367.00;5049755;28;20262;-70
2022/03/17 06:35:27;;;;;;;23.83;18.77;;;;;;;8.46;73.96;101371.91;5049688;28;20179;-71
2022/03/17 06:37:55;;;;;;;23.70;19.00;;;;;;;8.44;73.94;101366.75;5049820;28;20175;-70
2022/03/17 06:40:22;;;;;;;24.03;18.97;;;;;;;8.42;73.95;101376.28;5049497;28;20175;-71
2022/03/17 06:42:49;;;;;;;21.07;18.60;;;;;;;8.46;73.90;101374.63;5049652;28;20225;-71
2022/03/17 06:45:15;;;;;;;21.23;18.43;;;;;;;8.40;73.91;101375.75;5049740;28;20179;-71
2022/03/17 06:47:41;;;;;;;22.60;19.87;;;;;;;8.41;73.71;101378.19;5049431;28;20574;-70
2022/03/17 06:50:07;;;;;;;23.27;18.67;;;;;;;8.46;74.48;101380.09;5049944;28;20195;-72
2022/03/17 06:52:33;;;;;;;22.50;19.87;;;;;;;8.54;73.78;101379.53;5049713;28;20179;-70
2022/03/17 06:54:58;;;;;;;21.30;19.00;;;;;;;8.57;73.38;101381.72;5053180;28;20229;-71
2022/03/17 06:57:24;;;;;;;21.07;18.87;;;;;;;8.58;72.99;101383.34;5052946;28;20249;-71
2022/03/17 06:59:50;;;;;;;22.37;19.13;;;;;;;8.64;73.17;101376.78;5053009;28;20185;-70
2022/03/17 07:02:16;;;;;;;25.67;19.17;;;;;;;8.70;73.05;101380.31;5053109;28;20172;-71
2022/03/17 07:04:42;;;;;;;23.83;19.13;;;;;;;8.62;72.92;101384.41;5052998;28;20175;-72
2022/03/17 07:07:08;;;;;;;21.07;18.80;;;;;;;8.70;73.25;101400.22;5052552;28;20285;-71
2022/03/17 07:09:34;;;;;;;20.63;18.47;;;;;;;8.81;72.77;101400.97;5052786;28;20294;-71
2022/03/17 07:11:59;;;;;;;20.53;18.50;;;;;;;8.79;73.57;101408.63;5052916;28;20215;-71
2022/03/17 07:14:25;;;;;;;28.27;20.20;;;;;;;8.87;72.52;101403.44;5052815;28;20206;-72
2022/03/17 07:16:50;;;;;;;30.40;19.13;;;;;;;8.75;72.18;101416.53;5053009;28;20440;-71
2022/03/17 07:19:16;;;;;;;22.57;18.70;;;;;;;8.90;72.91;101418.41;5052658;28;20623;-70
2022/03/17 07:21:41;;;;;;;23.57;19.67;;;;;;;8.92;71.29;101405.31;5053062;28;20198;-70
2022/03/17 07:24:09;;;;;;;25.67;20.47;;;;;;;8.95;70.65;101421.13;5053855;28;20654;-71
2022/03/17 07:26:34;;;;;;;23.00;17.40;;;;;;;9.06;70.62;101414.56;5052559;28;20270;-70
2022/03/17 07:29:01;;;;;;;21.60;18.40;;;;;;;9.05;70.83;101420.28;5052204;28;20271;-71
2022/03/17 07:31:27;;;;;;;20.37;15.53;;;;;;;9.12;71.15;101421.63;5052275;28;20199;-70
2022/03/17 07:33:53;;;;;;;23.07;17.10;;;;;;;9.13;70.54;101428.72;5052816;28;20177;-70
2022/03/17 07:36:19;;;;;;;23.67;19.40;;;;;;;9.03;71.24;101426.00;5052378;28;20266;-70
2022/03/17 07:38:44;;;;;;;11.20;10.07;;;;;;;9.08;70.46;101420.53;5052125;28;20182;-71
2022/03/17 07:41:09;;;;;;;6.43;5.50;;;;;;;9.09;70.82;101430.34;5052566;28;20187;-70
2022/03/17 07:43:35;;;;;;;12.20;8.17;;;;;;;9.03;70.43;101426.00;5052274;28;20182;-70
2022/03/17 07:46:00;;;;;;;24.80;17.80;;;;;;;8.99;70.61;101435.84;5052316;28;20183;-70
2022/03/17 07:48:25;;;;;;;20.20;18.03;;;;;;;9.07;70.96;101434.44;5051735;28;20183;-71
2022/03/17 07:50:51;;;;;;;28.87;20.50;;;;;;;9.04;70.62;101437.72;5052013;28;20272;-70
2022/03/17 07:53:17;;;;;;;20.33;17.77;;;;;;;9.14;70.80;101432.25;5052183;28;20198;-70
2022/03/17 07:55:43;;;;;;;28.60;20.13;;;;;;;9.10;70.61;101442.88;5052044;28;20221;-70
2022/03/17 07:58:10;;;;;;;23.80;18.73;;;;;;;9.13;70.92;101444.25;5051702;28;20182;-71
2022/03/17 08:00:36;;;;;;;25.13;18.47;;;;;;;9.12;70.96;101453.53;5051884;28;20186;-70
2022/03/17 08:03:04;;;;;;;21.63;19.30;;;;;;;9.15;70.61;101456.53;5051760;28;20576;-70
2022/03/17 08:05:29;;;;;;;24.23;19.40;;;;;;;9.20;70.87;101469.31;5051468;28;20182;-71
2022/03/17 08:07:54;;;;;;;25.63;19.63;;;;;;;9.20;70.80;101461.13;5049670;28;20176;-69
2022/03/17 08:10:20;;;;;;;26.23;19.77;;;;;;;9.26;70.93;101460.03;5052532;28;20206;-71
2022/03/17 08:12:46;;;;;;;24.77;18.83;;;;;;;9.29;70.41;101458.66;5052595;28;20527;-71
2022/03/17 08:15:12;;;;;;;22.20;18.83;;;;;;;9.33;69.65;101474.19;5052422;28;20171;-71
2022/03/17 08:17:37;;;;;;;19.53;16.20;;;;;;;9.34;69.21;101466.81;5052239;28;20271;-71
2022/03/17 08:20:05;;;;;;;21.57;19.30;;;;;;;9.32;69.19;101467.09;5052573;28;20500;-71
2022/03/17 08:22:31;;;;;;;18.80;16.87;;;;;;;9.29;69.54;101473.13;5052316;28;20250;-70
2022/03/17 08:24:56;;;;;;;28.80;16.90;;;;;;;9.29;69.32;101470.38;5052025;28;20312;-70
2022/03/17 08:27:22;;;;;;;9.30;8.13;;;;;;;9.29;69.14;101478.56;5051901;28;20269;-72
2022/03/17 08:29:48;;;;;;;21.17;15.27;;;;;;;9.26;69.34;101481.84;5051832;28;20294;-71
2022/03/17 08:32:14;;;;;;;18.47;15.87;;;;;;;9.24;69.38;101475.84;5052471;28;20180;-70
2022/03/17 08:34:39;;;;;;;18.53;15.63;;;;;;;9.24;69.20;101482.09;5051596;28;20531;-71
2022/03/17 08:37:05;;;;;;;19.90;17.33;;;;;;;9.22;69.71;101475.31;5033469;28;20187;-71
2022/03/17 08:39:30;;;;;;;15.47;12.60;;;;;;;9.24;69.58;101484.84;5051563;28;20183;-72
2022/03/17 08:41:56;;;;;;;21.77;18.40;;;;;;;9.27;69.57;101479.94;5051424;28;20254;-71
2022/03/17 08:44:22;;;;;;;21.03;17.80;;;;;;;9.28;69.22;101490.56;5051272;28;20179;-70
2022/03/17 08:49:32;;;;;;;20.90;15.17;;;;;;;9.34;68.74;101499.53;5051583;28;20567;-72
2022/03/17 08:52:02;;;;;;;19.43;16.37;;;;;;;9.34;69.13;101497.63;5051219;28;20191;-71
2022/03/17 08:54:29;;;;;;;18.40;16.47;;;;;;;9.34;68.81;101505.00;5051300;28;20171;-71
2022/03/17 08:56:59;;;;;;;12.20;11.10;;;;;;;9.37;68.23;101504.44;5050902;28;20172;-71
2022/03/17 08:59:34;;;;;;;10.07;7.87;;;;;;;9.40;68.36;101514.78;5051086;28;20171;-70
2022/03/17 09:02:01;;;;;;;15.30;13.70;;;;;;;9.38;68.11;101517.78;5051032;28;20175;-71
2022/03/17 09:04:28;;;;;;;16.60;14.93;;;;;;;9.36;68.05;101521.91;5051075;28;20171;-71
2022/03/17 09:06:59;;;;;;;14.17;12.07;;;;;;;9.38;68.10;101520.53;5051065;28;20257;-71
2022/03/17 09:09:34;;;;;;;19.57;17.57;;;;;;;9.38;68.00;101528.72;5050677;28;20181;-72
2022/03/17 09:12:05;;;;;;;20.67;14.77;;;;;;;9.38;68.71;101528.72;5051194;28;20286;-71
2022/03/17 09:14:34;;;;;;;19.80;17.67;;;;;;;9.38;69.01;101531.44;5050900;28;20178;-70
2022/03/17 09:16:59;;;;;;;20.10;17.97;;;;;;;9.35;69.24;101528.44;5050055;28;20251;-71
2022/03/17 09:19:25;;;;;;;23.50;20.67;;;;;;;9.34;69.45;101535.81;5050898;28;20249;-71
2022/03/17 09:21:51;;;;;;;20.60;17.23;;;;;;;9.30;70.08;101540.19;5050663;28;20194;-71
2022/03/17 09:24:17;;;;;;;20.77;18.67;;;;;;;9.27;70.23;101545.38;5050864;28;20175;-72
2022/03/17 09:26:42;;;;;;;19.47;17.37;;;;;;;9.21;71.25;101542.66;5049706;28;20663;-71
2022/03/17 09:29:07;;;;;;;11.57;10.53;;;;;;;9.25;71.39;101551.09;5050469;28;20667;-71
2022/03/17 09:31:33;;;;;;;18.73;16.77;;;;;;;9.24;71.42;101550.28;5050988;28;20633;-70
2022/03/17 09:33:58;;;;;;;20.17;18.13;;;;;;;9.16;72.43;101542.66;5050428;28;20179;-71
2022/03/17 09:36:24;;;;;;;22.13;19.47;;;;;;;9.16;72.97;101550.03;5050673;28;20179;-72
2022/03/17 09:39:42;;;;;;;20.20;17.70;;;;;;;9.20;72.35;101553.84;5050585;28;20215;-70
2022/03/17 09:41:35;;;;;;;14.73;13.33;;;;;;;9.12;73.66;101557.94;5050193;28;20281;-71
2022/03/17 09:44:02;;;;;;;22.40;19.70;;;;;;;9.11;74.32;101561.78;5050626;28;20258;-70
2022/03/17 09:46:29;;;;;;;26.20;19.60;;;;;;;9.08;76.02;101565.03;5050248;28;20175;-71
2022/03/17 09:48:55;;;;;;;20.10;16.70;;;;;;;9.14;75.81;101571.31;5032491;28;20225;-71
2022/03/17 09:51:23;;;;;;;22.27;17.77;;;;;;;9.02;76.70;101565.31;5050519;28;20203;-71
2022/03/17 09:53:52;;;;;;;22.40;18.63;;;;;;;8.98;78.19;101567.78;5050501;28;20233;-70
2022/03/17 09:56:24;;;;;;;23.63;18.87;;;;;;;8.82;79.46;101569.66;5050347;28;20171;-71
2022/03/17 09:58:56;;;;;;;22.90;19.00;;;;;;;8.72;81.77;101572.38;5050219;28;20174;-72
2022/03/17 10:01:23;;;;;;;15.37;13.17;;;;;;;8.58;83.94;101560.38;5050306;28;20249;-70
2022/03/17 10:03:48;;;;;;;21.23;18.30;;;;;;;8.52;83.83;101559.53;5050448;28;20183;-71
2022/03/17 10:06:15;;;;;;;18.53;13.63;;;;;;;8.48;84.74;101565.81;5050477;28;20197;-70
2022/03/17 10:08:48;;;;;;;15.47;13.17;;;;;;;8.43;86.09;101558.47;5050256;28;20179;-70
2022/03/17 10:11:15;;;;;;;18.73;14.00;;;;;;;8.37;87.34;101562.25;5050649;28;20202;-71
2022/03/17 10:13:45;;;;;;;13.97;10.33;;;;;;;8.33;87.79;101570.09;5050222;28;20203;-71
2022/03/17 10:16:17;;;;;;;16.03;12.67;;;;;;;8.30;87.72;101565.19;5048395;28;20183;-71
2022/03/17 10:18:43;;;;;;;13.07;11.77;;;;;;;8.26;88.98;101561.38;5049883;28;20183;-70
2022/03/17 10:21:24;;;;;;;13.83;10.60;;;;;;;8.23;90.28;101571.97;5050047;28;20182;-71
2022/03/17 10:24:00;;;;;;;17.70;11.40;;;;;;;8.21;90.65;101574.97;5050159;28;20643;-71
2022/03/17 10:26:33;;;;;;;22.30;16.57;;;;;;;8.18;91.31;101569.25;5050183;28;20171;-71
2022/03/17 10:29:05;;;;;;;17.80;13.23;;;;;;;8.15;92.19;101570.59;5053915;28;20183;-71
2022/03/17 10:31:31;;;;;;;24.83;14.53;;;;;;;8.12;92.76;101578.50;5053725;28;20213;-71
2022/03/17 10:33:57;;;;;;;27.03;21.10;;;;;;;8.11;92.37;101580.41;5053860;28;20175;-71
2022/03/17 10:36:22;;;;;;;14.27;10.90;;;;;;;8.10;93.23;101584.19;5053952;28;20175;-70
2022/03/17 10:38:51;;;;;;;17.93;13.53;;;;;;;8.10;93.23;101595.09;5053841;28;20183;-71
2022/03/17 10:41:17;;;;;;;18.43;13.60;;;;;;;8.06;94.57;101592.06;5053888;28;20179;-72
2022/03/17 10:43:43;;;;;;;7.50;5.63;;;;;;;7.98;96.62;101587.16;5053777;28;20171;-73
2022/03/17 10:46:18;;;;;;;14.47;11.27;;;;;;;7.91;98.08;101591.19;5053689;28;20179;-73
2022/03/17 10:48:52;;;;;;;12.37;11.27;;;;;;;7.82;100.00;101590.88;5053460;28;20281;-70
2022/03/17 10:51:30;;;;;;;29.20;10.30;;;;;;;7.78;100.00;101592.47;5053419;28;20194;-70
2022/03/17 10:54:07;;;;;;;25.10;18.10;;;;;;;7.74;100.00;101597.63;5053884;28;20410;-64
2022/03/17 10:56:34;;;;;;;22.00;18.50;;;;;;;7.73;100.00;101601.44;5053700;28;20622;-70
2022/03/17 10:59:00;;;;;;;31.67;22.03;;;;;;;7.73;100.00;101600.63;5052897;28;20170;-71
2022/03/17 11:01:35;;;;;;;35.83;23.13;;;;;;;7.73;100.00;101609.59;5053072;28;20692;-71
2022/03/17 11:04:01;;;;;;;31.57;20.93;;;;;;;7.72;100.00;101615.31;5053117;28;20509;-71
2022/03/17 11:06:28;;;;;;;31.67;22.87;;;;;;;7.72;100.00;101616.13;5050066;28;20175;-71
2022/03/17 11:08:54;;;;;;;32.13;21.47;;;;;;;7.72;100.00;101637.88;5053242;28;20183;-71
2022/03/17 11:11:20;;;;;;;18.60;15.63;;;;;;;7.62;100.00;101643.25;5053769;28;20273;-71
2022/03/17 11:13:47;;;;;;;12.90;11.57;;;;;;;7.53;100.00;101647.56;5053256;28;20555;-71
2022/03/17 11:16:14;;;;;;;25.73;17.90;;;;;;;7.48;100.00;101642.06;5053383;28;20233;-70
2022/03/17 11:18:41;;;;;;;18.43;14.97;;;;;;;7.46;100.00;101652.38;5053038;28;20187;-70
2022/03/17 11:21:25;;;;;;;43.37;25.47;;;;;;;7.48;100.00;101661.09;5053226;28;20176;-69
2022/03/17 11:24:04;;;;;;;20.93;17.83;;;;;;;7.50;100.00;101658.13;5053210;28;20164;-70
2022/03/17 11:26:37;;;;;;;29.70;22.17;;;;;;;7.49;100.00;101667.34;5053183;28;20213;-70
2022/03/17 11:29:17;;;;;;;18.03;11.93;;;;;;;7.46;100.00;101671.41;5035407;28;20526;-70